Tualatin, OR (97062)

5:31 PM PDT on September 02, 2014 (GMT -0700)
Tualatin | Change Station
CLOSE
Current Station
Personal Weather Station
Location: Tualatin, OR
Elevation: 260 ft
Nearby Weather Stations

Elev 260 ft 45.37 °N, 122.77 °W | Updated 7 minutes ago

Overcast
Overcast
72.3 °F
Feels Like 77 °F
N
3.0
Wind Variable Wind from WNW
Gusts 3.0 mph

Today
High -- | Low -- °F
--% Chance of Precip.
Yesterday
High -- | Low -- °F
Precip. -- in
6:33 AM 7:46 PM
First Quarter, 56% visible
Pressure 29.90 in
Visibility 10.0 miles
Clouds Mostly Cloudy 6000 ft
Overcast 7000 ft
Heat Index 77 °F
Dew Point 48 °F
Humidity 43%
Rainfall 0.00 in
Snow Depth Not available.
UV 1 out of 12
Pollen 3.60 out of 12
Ozone Good
PM2.5 Good
Flu Activity Not available.
METAR KUAO 022353Z AUTO 27005KT 10SM BKN060 OVC070 24/10 A2990 RMK AO2 SLP123 T02390100 10256 20200 56015

More Conditions Fewer Conditions

Pressure 29.90 in
Visibility 10.0 miles
Clouds Mostly Cloudy 6000 ft
Overcast 7000 ft
Heat Index 77 °F
Dew Point 48 °F
Humidity 43%
Rainfall 0.00 in
Snow Depth Not available.
UV 1 out of 12
Pollen 3.60 out of 12
Ozone Good
PM2.5 Good
Flu Activity Not available.
METAR KUAO 022353Z AUTO 27005KT 10SM BKN060 OVC070 24/10 A2990 RMK AO2 SLP123 T02390100 10256 20200 56015

More Conditions Fewer Conditions

10-Day Weather Forecast

Almanac

Astronomy

Sep. 02, 2014 Rise Set
Actual Time 6:33 AM PDT 7:46 PM PDT
Civil Twilight 6:03 AM PDT 8:16 PM PDT
Nautical Twilight 5:26 AM PDT 8:53 PM PDT
Astronomical Twilight 4:48 AM PDT 9:31 PM PDT
Moon 2:43 PM PDT (9/2) No Moon Set
Length of Visible Light 14h 13m
Length of Day
13h 12m
Tomorrow will be 3m 5s shorter.
First Quarter, 56% of the Moon is Illuminated
Today
First Quarter
Sep 8
Full
Sep 15
Last Quarter
Sep 24
New
Oct 1
First Quarter

Today's Extremes

State Highs State Lows

Community

WunderPhotos

Upload Photos

1,749,812 photos uploaded!

Nearby

Air Quality

  Air Quality AQ Index Pollutant
Yesterday Good
OZONE
Yesterday Good
PM2.5
Current Good
OZONE
Current Good
PM2.5
Tuesday Good
PM2.5
Wednesday Good
PM2.5

Snow Depth

Station Depth Elevation
Seine Creek 0 in 2000 ft
Saddle Mountain 5 in 3250 ft
North Fork 1 in 3120 ft
Blazed Alder 0 in 3650 ft
Peavine Ridge 0 in 3500 ft

Earthquake Activity

City Distance Mag. Time & Date
No recent earthquake activity has been reported nearby.
Minimum magnitude displayed is 2.5.

Coastal Water Temperatures

Place Temperature
No Stations Reporting

Nearby Weather Stations